Time;durP1;ratioP1;P1;durP2;ratioP2;P2;SDS_P1;SDS_P2;PMS_P1;PMS_P2;Temp;Humidity;BMP_temperature;BMP_pressure;BME280_temperature;BME280_humidity;BME280_pressure;Samples;Min_cycle;Max_cycle;Signal;HPM_P1;HPM_P2
2022/05/23 00:02:00;;;;;;;6.60;3.00;;;15.10;99.90;;;;;;5095108;28;20075;-85
2022/05/23 00:04:26;;;;;;;5.05;2.80;;;15.10;99.90;;;;;;5094682;28;20115;-85
2022/05/23 00:06:54;;;;;;;6.75;3.45;;;15.10;99.90;;;;;;5077816;28;20127;-85
2022/05/23 00:09:20;;;;;;;4.45;3.30;;;15.10;99.90;;;;;;5073277;28;20028;-85
2022/05/23 00:11:46;;;;;;;4.85;2.97;;;15.00;99.90;;;;;;5077734;28;20028;-85
2022/05/23 00:14:13;;;;;;;4.05;3.20;;;15.10;99.90;;;;;;5077620;28;20043;-85
2022/05/23 00:16:42;;;;;;;10.95;3.33;;;15.10;99.90;;;;;;5073019;28;20136;-85
2022/05/23 00:19:09;;;;;;;3.53;3.20;;;15.10;99.90;;;;;;5094719;28;20032;-85
2022/05/23 00:21:36;;;;;;;4.10;2.90;;;15.10;99.90;;;;;;5095871;28;20024;-85
2022/05/23 00:24:02;;;;;;;3.67;3.05;;;15.20;99.90;;;;;;5077975;28;20031;-85
2022/05/23 00:26:28;;;;;;;7.43;3.47;;;15.20;99.90;;;;;;5077519;28;20379;-85
2022/05/23 00:28:59;;;;;;;7.72;3.22;;;15.40;99.90;;;;;;5094825;28;20024;-85
2022/05/23 00:31:25;;;;;;;5.38;3.00;;;15.40;99.90;;;;;;5077284;28;20109;-84
2022/05/23 00:36:37;;;;;;;4.68;3.25;;;15.60;99.90;;;;;;5094221;28;20036;-85
2022/05/23 00:39:04;;;;;;;4.95;2.78;;;15.70;99.90;;;;;;5077639;28;20500;-85
2022/05/23 00:44:34;;;;;;;5.82;3.22;;;15.60;99.90;;;;;;5094143;28;20035;-86
2022/05/23 00:47:14;;;;;;;7.45;3.33;;;15.50;99.90;;;;;;5094303;28;20040;-85
2022/05/23 00:49:41;;;;;;;4.40;2.72;;;15.40;99.90;;;;;;5077325;28;20032;-85
2022/05/23 00:52:11;;;;;;;6.22;3.38;;;15.30;99.90;;;;;;5093707;28;20028;-85
2022/05/23 00:54:44;;;;;;;6.72;3.00;;;15.30;99.90;;;;;;5093386;28;20032;-84
2022/05/23 00:57:56;;;;;;;7.30;3.25;;;15.30;99.90;;;;;;5076917;28;20036;-84
2022/05/23 01:00:25;;;;;;;5.30;2.92;;;15.30;99.90;;;;;;5093863;28;20031;-85
2022/05/23 01:03:29;;;;;;;6.70;3.03;;;15.20;99.90;;;;;;5091054;28;20040;-84
2022/05/23 01:06:19;;;;;;;7.35;3.17;;;15.10;99.90;;;;;;5076748;28;20394;-85
2022/05/23 01:08:51;;;;;;;7.47;3.03;;;15.10;99.90;;;;;;5077005;28;20035;-84
2022/05/23 01:11:19;;;;;;;4.63;3.40;;;15.00;99.90;;;;;;5093052;28;20032;-84
2022/05/23 01:13:45;;;;;;;9.90;3.20;;;15.00;99.90;;;;;;5075401;28;20042;-85
2022/05/23 01:16:51;;;;;;;7.53;2.60;;;14.90;99.90;;;;;;5092733;28;20028;-85
2022/05/23 01:19:17;;;;;;;4.63;3.30;;;14.80;99.90;;;;;;5076055;28;20032;-84
2022/05/23 01:22:05;;;;;;;6.82;3.35;;;14.70;99.90;;;;;;5076016;28;20533;-85
2022/05/23 01:25:02;;;;;;;3.55;2.90;;;14.70;99.90;;;;;;5064677;28;20066;-85
2022/05/23 01:27:30;;;;;;;6.82;3.40;;;14.70;99.90;;;;;;5076783;28;20024;-84
2022/05/23 01:29:58;;;;;;;5.55;3.58;;;14.70;99.90;;;;;;5076942;28;20035;-85
2022/05/23 01:32:24;;;;;;;6.78;3.22;;;14.70;99.90;;;;;;5076884;28;20776;-84
2022/05/23 01:34:50;;;;;;;7.50;3.75;;;14.70;99.90;;;;;;5076327;28;20054;-84
2022/05/23 01:37:19;;;;;;;5.63;3.35;;;14.70;99.90;;;;;;5092841;28;20070;-85
2022/05/23 01:39:57;;;;;;;4.05;3.22;;;14.70;99.90;;;;;;5077505;28;20027;-85
2022/05/23 01:42:36;;;;;;;7.78;3.70;;;14.80;99.90;;;;;;5092871;28;20024;-85
2022/05/23 01:45:03;;;;;;;8.13;3.38;;;14.80;99.90;;;;;;5092584;28;20181;-85
2022/05/23 01:47:28;;;;;;;8.30;3.35;;;14.80;99.90;;;;;;5075193;28;20119;-85
2022/05/23 01:49:56;;;;;;;5.90;3.30;;;14.80;99.90;;;;;;5092729;28;20428;-85
2022/05/23 01:52:37;;;;;;;7.57;3.55;;;14.90;99.90;;;;;;5092463;28;20032;-85
2022/05/23 01:55:09;;;;;;;8.52;3.58;;;14.90;99.90;;;;;;5092325;28;20081;-85
2022/05/23 01:57:37;;;;;;;5.63;3.38;;;14.90;99.90;;;;;;5074479;28;20031;-85
2022/05/23 02:02:51;;;;;;;4.82;3.05;;;15.00;99.90;;;;;;5092479;28;20442;-85
2022/05/23 02:05:20;;;;;;;5.63;3.33;;;15.00;99.90;;;;;;5074930;28;20062;-85
2022/05/23 02:07:49;;;;;;;7.10;3.67;;;15.00;99.90;;;;;;5075363;28;20059;-85
2022/05/23 02:10:15;;;;;;;6.93;3.45;;;15.00;99.90;;;;;;5075650;28;20421;-85
2022/05/23 02:12:47;;;;;;;7.63;3.30;;;14.90;99.90;;;;;;5076534;28;20024;-86
2022/05/23 02:15:18;;;;;;;5.22;3.17;;;15.00;99.90;;;;;;5092217;28;20032;-84
2022/05/23 02:17:44;;;;;;;4.28;3.33;;;14.90;99.90;;;;;;5089658;28;20127;-85
2022/05/23 02:20:11;;;;;;;6.22;3.33;;;14.90;99.90;;;;;;5075429;28;20115;-85
2022/05/23 02:22:37;;;;;;;7.82;3.95;;;14.90;99.90;;;;;;5092258;28;20035;-85
2022/05/23 02:25:35;;;;;;;4.75;3.25;;;14.90;99.90;;;;;;5086380;28;20036;-86
2022/05/23 02:28:21;;;;;;;7.78;3.30;;;15.00;99.90;;;;;;5092644;28;20387;-84
2022/05/23 02:30:48;;;;;;;10.90;3.50;;;15.00;99.90;;;;;;5075530;28;20051;-84
2022/05/23 02:33:28;;;;;;;5.97;3.25;;;15.10;99.90;;;;;;5077297;28;20020;-83
2022/05/23 02:36:14;;;;;;;6.80;4.25;;;15.00;99.90;;;;;;5092395;28;20085;-84
2022/05/23 02:38:40;;;;;;;10.32;2.90;;;15.10;99.90;;;;;;5091605;28;20028;-84
2022/05/23 02:41:07;;;;;;;8.55;4.03;;;15.00;99.90;;;;;;5091707;28;20407;-84
2022/05/23 02:43:37;;;;;;;6.68;3.72;;;15.00;99.90;;;;;;5075225;28;20028;-84
2022/05/23 02:46:04;;;;;;;6.18;3.58;;;15.00;99.90;;;;;;5075439;28;20807;-84
2022/05/23 02:48:30;;;;;;;9.38;3.10;;;14.90;99.90;;;;;;5075595;28;20030;-84
2022/05/23 02:51:03;;;;;;;6.35;3.53;;;14.90;99.90;;;;;;5092132;28;20066;-84
2022/05/23 02:53:30;;;;;;;9.45;3.40;;;14.90;99.90;;;;;;5070574;28;20042;-85
2022/05/23 02:55:56;;;;;;;5.53;3.75;;;14.90;99.90;;;;;;5074753;28;20634;-84
2022/05/23 02:58:22;;;;;;;8.88;3.38;;;14.90;99.90;;;;;;5075173;28;20027;-84
2022/05/23 03:00:48;;;;;;;7.35;3.42;;;14.90;99.90;;;;;;5074773;28;20035;-85
2022/05/23 03:03:14;;;;;;;8.68;3.50;;;14.90;99.90;;;;;;5074371;28;20115;-84
2022/05/23 03:05:46;;;;;;;11.63;4.43;;;14.90;99.90;;;;;;5074862;28;20077;-85
2022/05/23 03:08:16;;;;;;;7.32;4.53;;;14.90;99.90;;;;;;5091489;28;20093;-84
2022/05/23 03:10:41;;;;;;;10.20;3.45;;;14.90;99.90;;;;;;5074732;28;20466;-85
2022/05/23 03:13:09;;;;;;;5.00;3.30;;;14.90;99.90;;;;;;5074738;28;20024;-84
2022/05/23 03:15:35;;;;;;;4.90;3.55;;;14.90;99.90;;;;;;5074522;28;20024;-84
2022/05/23 03:18:02;;;;;;;10.30;3.58;;;15.00;99.90;;;;;;5089323;28;20077;-85
2022/05/23 03:20:30;;;;;;;7.55;3.55;;;15.00;99.90;;;;;;5095949;28;20107;-85
2022/05/23 03:28:32;;;;;;;6.10;3.35;;;15.10;99.90;;;;;;5095419;28;20034;-84
2022/05/23 03:30:58;;;;;;;5.50;3.38;;;15.10;99.90;;;;;;5078094;28;20016;-84
2022/05/23 03:33:24;;;;;;;5.85;3.85;;;15.10;99.90;;;;;;5078331;28;20124;-84
2022/05/23 03:35:50;;;;;;;6.00;3.75;;;15.00;99.90;;;;;;5095346;28;20460;-84
2022/05/23 03:38:16;;;;;;;5.30;3.50;;;15.00;99.90;;;;;;5079036;28;20034;-84
2022/05/23 03:40:43;;;;;;;10.70;3.67;;;15.00;99.90;;;;;;5078659;28;20103;-84
2022/05/23 03:43:09;;;;;;;8.27;3.58;;;15.00;99.90;;;;;;5078306;28;20494;-85
2022/05/23 03:45:37;;;;;;;5.88;3.70;;;15.00;99.90;;;;;;5078585;28;20020;-84
2022/05/23 03:48:08;;;;;;;9.10;4.15;;;15.00;99.90;;;;;;5075327;28;20542;-84
2022/05/23 03:50:35;;;;;;;10.38;4.18;;;15.00;99.90;;;;;;5078050;28;20024;-85
2022/05/23 03:53:03;;;;;;;8.63;3.58;;;15.00;99.90;;;;;;5095268;28;20784;-85
2022/05/23 03:55:32;;;;;;;5.88;3.47;;;15.10;99.90;;;;;;5079120;28;20035;-85
2022/05/23 03:58:13;;;;;;;;;;;15.10;99.90;;;;;;5095542;28;20036;-84
2022/05/23 04:00:43;;;;;;;4.85;3.35;;;15.10;99.90;;;;;;5094876;28;19908;-85
2022/05/23 04:03:11;;;;;;;6.43;3.75;;;15.10;99.90;;;;;;5094649;28;20487;-85
2022/05/23 04:05:40;;;;;;;5.85;3.95;;;15.20;99.90;;;;;;5077949;28;20031;-84
2022/05/23 04:08:18;;;;;;;4.40;3.33;;;15.20;99.90;;;;;;5095078;28;20093;-85
2022/05/23 04:10:50;;;;;;;5.80;3.50;;;15.20;99.90;;;;;;5078894;28;20170;-84
2022/05/23 04:13:15;;;;;;;4.72;3.58;;;15.20;99.90;;;;;;5094750;28;20054;-84
2022/05/23 04:15:41;;;;;;;5.70;2.90;;;15.20;99.90;;;;;;5077545;28;20064;-84
2022/05/23 04:18:08;;;;;;;5.63;3.50;;;15.20;99.90;;;;;;5072836;28;20102;-85
2022/05/23 04:20:34;;;;;;;6.72;3.88;;;15.10;99.90;;;;;;5078000;28;20062;-84
2022/05/23 04:23:08;;;;;;;7.35;3.65;;;15.20;99.90;;;;;;5078386;28;20135;-85
2022/05/23 04:25:45;;;;;;;7.68;4.47;;;15.30;99.90;;;;;;5077077;28;20024;-85
2022/05/23 04:28:12;;;;;;;9.38;4.20;;;15.10;99.90;;;;;;5093781;28;20435;-85
2022/05/23 04:30:45;;;;;;;8.57;4.35;;;14.70;99.90;;;;;;5093333;28;20028;-84
2022/05/23 04:36:00;;;;;;;10.10;4.90;;;13.90;99.90;;;;;;5094586;28;20784;-85
2022/05/23 04:38:32;;;;;;;6.88;5.38;;;13.50;99.90;;;;;;5078318;28;20020;-85
2022/05/23 04:41:01;;;;;;;11.20;6.63;;;13.40;99.90;;;;;;5077844;28;20107;-85
2022/05/23 04:43:44;;;;;;;9.52;5.95;;;13.30;99.90;;;;;;5090225;28;20479;-85
2022/05/23 04:46:09;;;;;;;14.95;7.22;;;13.20;99.90;;;;;;5094477;28;20048;-86
2022/05/23 04:51:51;;;;;;;9.38;7.53;;;13.00;99.90;;;;;;5094147;28;20028;-85
2022/05/23 04:54:41;;;;;;;12.25;8.68;;;12.90;99.90;;;;;;5078041;28;20059;-84
2022/05/23 04:57:11;;;;;;;17.60;8.65;;;12.90;99.90;;;;;;5077680;28;20407;-84
2022/05/23 04:59:38;;;;;;;14.95;9.20;;;13.00;99.90;;;;;;5077000;28;20422;-85
2022/05/23 05:02:08;;;;;;;20.52;11.38;;;12.90;99.90;;;;;;5093315;28;20498;-84
2022/05/23 05:04:33;;;;;;;17.60;11.88;;;12.90;99.90;;;;;;5093242;28;20028;-84
2022/05/23 05:07:00;;;;;;;21.55;12.40;;;12.90;99.90;;;;;;5077082;28;20017;-84
2022/05/23 05:09:26;;;;;;;23.08;12.55;;;12.90;99.90;;;;;;5077190;28;20034;-84
2022/05/23 05:12:04;;;;;;;13.80;12.13;;;12.90;99.90;;;;;;5078189;28;20028;-84
2022/05/23 05:14:39;;;;;;;20.35;14.05;;;12.90;99.90;;;;;;5076995;28;20067;-85
2022/05/23 05:17:07;;;;;;;25.40;14.82;;;13.00;99.90;;;;;;5077210;28;20487;-85
2022/05/23 05:19:34;;;;;;;19.33;15.32;;;13.00;99.90;;;;;;5072624;28;20059;-84
2022/05/23 05:22:19;;;;;;;23.17;14.88;;;13.00;99.90;;;;;;5093907;28;20039;-84
2022/05/23 05:25:41;;;;;;;25.38;14.63;;;12.90;99.90;;;;;;5094642;28;20116;-84
2022/05/23 05:28:11;;;;;;;22.13;13.77;;;12.80;99.90;;;;;;5076990;28;20479;-85
2022/05/23 05:30:47;;;;;;;19.25;14.18;;;12.70;99.90;;;;;;5076225;28;20035;-84
2022/05/23 05:33:20;;;;;;;25.08;14.00;;;12.60;99.90;;;;;;5076920;28;20036;-85
2022/05/23 05:35:55;;;;;;;20.80;13.07;;;12.50;99.90;;;;;;5076442;28;20135;-85
2022/05/23 05:38:32;;;;;;;20.50;12.85;;;12.50;99.90;;;;;;5073940;28;20621;-85
2022/05/23 05:41:09;;;;;;;22.58;14.88;;;12.50;99.90;;;;;;5075935;28;20055;-86
2022/05/23 05:43:46;;;;;;;25.83;13.95;;;12.60;99.90;;;;;;5076453;28;20364;-85
2022/05/23 05:46:20;;;;;;;15.55;12.55;;;12.60;99.90;;;;;;5076685;28;20035;-85
2022/05/23 05:48:54;;;;;;;20.55;13.30;;;12.60;99.90;;;;;;5093150;28;20058;-85
2022/05/23 05:51:23;;;;;;;19.08;13.77;;;12.70;99.90;;;;;;5076615;28;20105;-85
2022/05/23 05:54:21;;;;;;;26.25;15.75;;;12.60;99.90;;;;;;5090001;28;20028;-85
2022/05/23 06:00:21;;;;;;;19.42;12.98;;;12.50;99.90;;;;;;5092311;28;20036;-86
2022/05/23 06:02:52;;;;;;;22.42;15.32;;;12.50;99.90;;;;;;5076463;28;20483;-85
2022/05/23 06:11:24;;;;;;;20.67;14.23;;;12.50;99.90;;;;;;5053584;28;20043;-84
2022/05/23 06:14:03;;;;;;;19.45;13.75;;;12.60;99.90;;;;;;5092558;28;20024;-84
2022/05/23 06:16:36;;;;;;;16.58;12.35;;;12.70;99.90;;;;;;5075533;28;20495;-85
2022/05/23 06:19:05;;;;;;;13.45;11.73;;;12.80;99.90;;;;;;5075992;28;20027;-84
2022/05/23 06:21:41;;;;;;;13.40;9.95;;;13.00;99.90;;;;;;5090884;28;20028;-87
2022/05/23 06:24:08;;;;;;;17.05;10.13;;;13.20;99.90;;;;;;5092256;28;20028;-86
2022/05/23 06:26:42;;;;;;;15.75;8.80;;;13.30;99.90;;;;;;5092483;28;20516;-86
2022/05/23 06:29:25;;;;;;;17.67;10.07;;;13.30;99.90;;;;;;5077376;28;20412;-84
2022/05/23 06:31:51;;;;;;;14.13;8.98;;;13.30;99.90;;;;;;5074947;28;20119;-86
2022/05/23 06:34:21;;;;;;;17.00;8.63;;;13.30;99.90;;;;;;5072965;28;20055;-86
2022/05/23 06:36:51;;;;;;;13.95;8.20;;;13.30;99.90;;;;;;5075205;28;20657;-87
2022/05/23 06:39:17;;;;;;;15.02;8.52;;;13.50;99.90;;;;;;5092356;28;20063;-84
2022/05/23 06:42:19;;;;;;;10.30;8.67;;;13.60;99.90;;;;;;5091771;28;20032;-86
2022/05/23 06:45:23;;;;;;;15.77;8.00;;;14.00;99.90;;;;;;5039241;28;20060;-86
2022/05/23 06:48:08;;;;;;;12.25;7.28;;;14.30;99.90;;;;;;5050696;28;20092;-85
2022/05/23 06:50:47;;;;;;;10.10;7.03;;;14.40;99.90;;;;;;5072145;28;20520;-85
2022/05/23 06:53:20;;;;;;;12.27;6.55;;;14.70;99.90;;;;;;5075113;28;20107;-84
2022/05/23 06:55:58;;;;;;;11.30;6.20;;;14.80;99.90;;;;;;5073650;28;20031;-83
2022/05/23 06:58:24;;;;;;;8.75;5.80;;;15.20;99.90;;;;;;5055552;28;20041;-84
2022/05/23 07:00:52;;;;;;;7.35;5.60;;;15.50;99.90;;;;;;5053801;28;20052;-84
2022/05/23 07:03:52;;;;;;;9.93;5.70;;;15.70;99.90;;;;;;5038619;28;20178;-84
2022/05/23 07:15:38;;;;;;;7.55;3.90;;;16.00;99.90;;;;;;5072970;28;20089;-84
2022/05/23 07:18:27;;;;;;;5.22;4.13;;;15.70;99.90;;;;;;5071268;28;20032;-86
2022/05/23 07:20:54;;;;;;;8.30;4.57;;;15.60;99.90;;;;;;5054560;28;20089;-84
2022/05/23 07:23:27;;;;;;;5.97;3.80;;;15.60;99.90;;;;;;5055765;28;20468;-86
2022/05/23 07:26:09;;;;;;;6.00;4.13;;;15.50;99.90;;;;;;5055830;28;20052;-84
2022/05/23 07:28:47;;;;;;;8.85;4.32;;;15.40;99.90;;;;;;5056501;28;20044;-83
2022/05/23 07:31:16;;;;;;;7.95;4.70;;;15.60;99.90;;;;;;5053050;28;20051;-83
2022/05/23 07:33:43;;;;;;;7.13;4.97;;;16.00;99.90;;;;;;5066946;28;20078;-85
2022/05/23 07:36:16;;;;;;;9.48;4.05;;;16.30;99.90;;;;;;5070864;28;20112;-84
2022/05/23 07:38:44;;;;;;;8.27;4.53;;;16.50;99.90;;;;;;5071115;28;20484;-84
2022/05/23 07:41:15;;;;;;;8.30;3.55;;;16.70;99.90;;;;;;5070832;28;20040;-84
2022/05/23 07:43:43;;;;;;;8.15;4.00;;;16.90;99.90;;;;;;5054182;28;20024;-84
2022/05/23 07:46:13;;;;;;;7.38;3.88;;;17.10;99.90;;;;;;5054495;28;20050;-85
2022/05/23 07:48:46;;;;;;;6.57;4.22;;;17.10;99.90;;;;;;5054607;28;20174;-85
2022/05/23 07:51:15;;;;;;;6.47;3.67;;;17.00;99.90;;;;;;5054551;28;20546;-84
2022/05/23 08:01:58;;;;;;;13.75;4.35;;;17.30;99.90;;;;;;5071041;28;20058;-84
2022/05/23 08:04:24;;;;;;;11.35;3.88;;;17.40;99.90;;;;;;5071240;28;20430;-84
2022/05/23 08:06:53;;;;;;;5.60;3.80;;;17.50;99.90;;;;;;5057371;28;20032;-84
2022/05/23 08:09:20;;;;;;;6.45;3.72;;;17.70;99.90;;;;;;5057596;28;20031;-84
2022/05/23 08:11:58;;;;;;;11.80;3.85;;;18.30;99.90;;;;;;5059425;28;20070;-83
2022/05/23 08:14:24;;;;;;;13.48;3.65;;;18.90;99.90;;;;;;5057755;28;20095;-84
2022/05/23 08:16:55;;;;;;;6.13;3.75;;;19.60;99.90;;;;;;5058402;28;20032;-84
2022/05/23 08:19:30;;;;;;;5.70;4.18;;;20.10;99.90;;;;;;5074446;28;20039;-84
2022/05/23 08:22:05;;;;;;;8.25;4.03;;;19.90;99.90;;;;;;5058623;28;20033;-84
2022/05/23 08:24:41;;;;;;;7.40;4.03;;;19.70;99.90;;;;;;5074495;28;20111;-84
2022/05/23 08:27:07;;;;;;;7.07;4.22;;;19.70;99.90;;;;;;5074073;28;20021;-84
2022/05/23 08:29:43;;;;;;;8.18;4.65;;;19.50;99.90;;;;;;5054630;28;20491;-84
2022/05/23 08:32:10;;;;;;;11.25;4.05;;;19.80;99.90;;;;;;5057736;28;20032;-83
2022/05/23 08:34:41;;;;;;;;;;;20.40;99.90;;;;;;5058108;28;20615;-84
2022/05/23 08:37:08;;;;;;;5.15;3.85;;;21.20;99.90;;;;;;5074086;28;19994;-83
2022/05/23 08:39:35;;;;;;;4.03;3.63;;;22.20;99.90;;;;;;5054173;28;20036;-82
2022/05/23 08:42:47;;;;;;;5.93;3.63;;;23.30;99.90;;;;;;5073887;28;20028;-84
2022/05/23 08:45:39;;;;;;;7.43;3.50;;;22.90;99.90;;;;;;5058012;28;20040;-84
2022/05/23 08:48:28;;;;;;;7.10;4.03;;;23.30;99.90;;;;;;5073397;28;20530;-84
2022/05/23 08:50:59;;;;;;;5.35;3.35;;;22.40;99.90;;;;;;5057473;28;20075;-84
2022/05/23 08:53:43;;;;;;;5.53;3.83;;;21.10;99.90;;;;;;5057003;28;20025;-83
2022/05/23 08:56:37;;;;;;;10.88;4.25;;;19.80;99.90;;;;;;5074492;28;20050;-83
2022/05/23 08:59:25;;;;;;;7.07;3.80;;;19.50;99.90;;;;;;5057092;28;20123;-84
2022/05/23 09:02:00;;;;;;;11.43;4.30;;;19.90;99.90;;;;;;5055959;28;20392;-84
2022/05/23 09:04:48;;;;;;;5.85;3.55;;;20.80;99.90;;;;;;5056216;28;20044;-84
2022/05/23 09:07:27;;;;;;;6.90;3.65;;;21.90;99.90;;;;;;5056802;28;20025;-84
2022/05/23 09:09:57;;;;;;;6.25;3.55;;;23.00;99.90;;;;;;5056215;28;20050;-85
2022/05/23 09:12:23;;;;;;;6.38;3.20;;;23.10;99.90;;;;;;5056385;28;20040;-85
2022/05/23 09:14:49;;;;;;;7.05;3.75;;;22.50;99.90;;;;;;5055865;28;20079;-84
2022/05/23 09:17:25;;;;;;;5.68;3.28;;;22.20;99.90;;;;;;5072829;28;20136;-85
2022/05/23 09:20:13;;;;;;;10.27;3.50;;;23.00;99.90;;;;;;5073396;28;20056;-83
2022/05/23 09:22:52;;;;;;;9.70;3.92;;;22.70;99.90;;;;;;5056140;28;20032;-84
2022/05/23 09:25:21;;;;;;;8.18;3.50;;;23.10;99.90;;;;;;5074195;28;20021;-84
2022/05/23 09:28:05;;;;;;;14.15;3.35;;;23.20;99.90;;;;;;5056582;28;20480;-83
2022/05/23 09:30:35;;;;;;;3.00;2.50;;;23.30;99.90;;;;;;5073834;28;20468;-84
2022/05/23 09:33:00;;;;;;;7.10;3.47;;;23.50;99.90;;;;;;5058043;28;20135;-84
2022/05/23 09:35:46;;;;;;;7.57;3.45;;;23.30;99.90;;;;;;5054946;28;20127;-85
2022/05/23 09:38:31;;;;;;;5.80;3.00;;;23.80;99.90;;;;;;5072800;28;20037;-84
2022/05/23 09:40:57;;;;;;;6.95;3.65;;;23.50;99.90;;;;;;5066975;28;20043;-83
2022/05/23 09:50:03;;;;;;;7.45;3.50;;;24.30;99.90;;;;;;5073631;28;20106;-83
2022/05/23 09:52:32;;;;;;;7.82;3.97;;;24.10;99.90;;;;;;5055810;28;20063;-84
2022/05/23 09:55:04;;;;;;;9.75;4.15;;;24.00;99.90;;;;;;5072186;28;20032;-84
2022/05/23 09:57:48;;;;;;;5.78;3.78;;;24.30;99.90;;;;;;5055521;28;20040;-84
2022/05/23 10:00:22;;;;;;;7.53;4.30;;;24.70;99.90;;;;;;5055404;28;20115;-85
2022/05/23 10:02:53;;;;;;;7.25;4.93;;;24.40;99.90;;;;;;5055291;28;20128;-84
2022/05/23 10:05:30;;;;;;;17.02;5.50;;;23.90;99.90;;;;;;5054851;28;20025;-84
2022/05/23 10:08:01;;;;;;;8.93;5.13;;;23.50;99.90;;;;;;5072125;28;20032;-83
2022/05/23 10:10:27;;;;;;;;;;;23.40;99.90;;;;;;5056263;28;20039;-82
2022/05/23 10:13:36;;;;;;;9.90;5.07;;;23.50;99.90;;;;;;5056010;28;19913;-83
2022/05/23 10:16:08;;;;;;;6.45;4.25;;;23.00;99.90;;;;;;5035431;28;20567;-82
2022/05/23 10:18:37;;;;;;;8.65;4.80;;;23.60;99.90;;;;;;5088789;28;20031;-82
2022/05/23 10:21:31;;;;;;;9.13;5.32;;;24.20;99.90;;;;;;5055143;28;20037;-82
2022/05/23 10:24:24;;;;;;;8.75;4.35;;;24.10;99.90;;;;;;5071643;28;20157;-82
2022/05/23 10:26:57;;;;;;;7.90;4.70;;;24.60;99.90;;;;;;5071010;28;20035;-83
2022/05/23 10:29:41;;;;;;;8.68;5.55;;;25.30;99.90;;;;;;5071776;28;20024;-83
2022/05/23 10:32:10;;;;;;;7.68;5.35;;;25.30;99.90;;;;;;5055238;28;20085;-83
2022/05/23 10:34:43;;;;;;;9.20;4.65;;;24.90;99.90;;;;;;5071688;28;20085;-83
2022/05/23 10:37:24;;;;;;;7.18;5.05;;;25.10;99.90;;;;;;5054827;28;20025;-83
2022/05/23 10:43:20;;;;;;;9.88;4.75;;;24.50;99.90;;;;;;5029146;28;20067;-82
2022/05/23 10:45:59;;;;;;;10.88;4.75;;;24.80;99.90;;;;;;5046733;28;20440;-82
2022/05/23 10:48:41;;;;;;;9.00;4.50;;;25.00;99.90;;;;;;5047205;28;20041;-82
2022/05/23 10:51:33;;;;;;;6.55;4.53;;;25.00;99.90;;;;;;5030262;28;20032;-84
2022/05/23 10:54:10;;;;;;;8.63;4.68;;;24.80;99.90;;;;;;5044546;28;20037;-82
2022/05/23 10:57:02;;;;;;;9.25;4.90;;;25.20;99.90;;;;;;5048330;28;20694;-83
2022/05/23 11:00:01;;;;;;;8.25;4.95;;;25.50;99.90;;;;;;5053961;28;20059;-83
2022/05/23 11:02:56;;;;;;;7.50;5.80;;;25.20;99.90;;;;;;5054085;28;20040;-82
2022/05/23 11:05:53;;;;;;;8.68;6.00;;;24.60;99.90;;;;;;5070885;28;20040;-83
2022/05/23 11:08:57;;;;;;;11.38;6.00;;;24.40;99.90;;;;;;5053873;28;20040;-83
2022/05/23 11:11:29;;;;;;;10.50;6.78;;;24.20;99.90;;;;;;5062877;28;20072;-83
2022/05/23 11:14:19;;;;;;;11.20;7.43;;;23.90;99.90;;;;;;5071531;28;20479;-83
2022/05/23 11:17:10;;;;;;;9.53;6.50;;;23.60;99.90;;;;;;5071288;28;20028;-83
2022/05/23 11:19:54;;;;;;;14.23;7.15;;;23.80;99.90;;;;;;5071231;28;20024;-82
2022/05/23 11:22:31;;;;;;;9.73;5.65;;;23.50;99.90;;;;;;5070873;28;20119;-82
2022/05/23 11:25:03;;;;;;;8.63;5.28;;;23.60;99.90;;;;;;5070909;28;20028;-82
2022/05/23 11:36:09;;;;;;;11.60;5.55;;;22.00;99.90;;;;;;5070730;28;20048;-82
2022/05/23 11:38:44;;;;;;;11.82;6.05;;;21.40;99.90;;;;;;5055711;28;20040;-82
2022/05/23 11:41:28;;;;;;;7.55;5.88;;;21.00;99.90;;;;;;5057838;28;20028;-82
2022/05/23 11:43:54;;;;;;;9.60;6.15;;;20.90;99.90;;;;;;5053889;28;20063;-82
2022/05/23 11:46:27;;;;;;;11.98;5.50;;;21.10;99.90;;;;;;5075222;28;20069;-82
2022/05/23 11:49:34;;;;;;;8.13;5.80;;;21.10;99.90;;;;;;5058209;28;20036;-82
2022/05/23 11:52:03;;;;;;;14.52;6.45;;;20.80;99.90;;;;;;5074354;28;20032;-82
2022/05/23 11:54:38;;;;;;;9.95;6.38;;;20.90;99.90;;;;;;5057727;28;20037;-82
2022/05/23 11:57:03;;;;;;;11.90;6.43;;;20.90;99.90;;;;;;5053214;28;20127;-82
2022/05/23 11:59:29;;;;;;;10.27;6.80;;;20.90;99.90;;;;;;5055082;28;20139;-82
2022/05/23 12:02:21;;;;;;;13.60;7.97;;;20.90;99.90;;;;;;5055009;28;20059;-82
2022/05/23 12:04:51;;;;;;;11.18;7.22;;;20.60;99.90;;;;;;5064374;28;20037;-82
2022/05/23 12:07:38;;;;;;;11.45;8.10;;;20.30;99.90;;;;;;5055746;28;20108;-82
2022/05/23 12:10:25;;;;;;;11.23;7.75;;;20.10;99.90;;;;;;5057928;28;20048;-82
2022/05/23 12:12:54;;;;;;;14.10;7.80;;;20.00;99.90;;;;;;5057757;28;20029;-82
2022/05/23 12:15:41;;;;;;;14.57;7.68;;;19.90;99.90;;;;;;5073994;28;20075;-82
2022/05/23 12:18:19;;;;;;;16.60;7.78;;;19.60;99.90;;;;;;5073658;28;20049;-84
2022/05/23 12:20:52;;;;;;;10.70;7.75;;;19.60;99.90;;;;;;5057580;28;20025;-84
2022/05/23 12:23:33;;;;;;;12.35;7.82;;;19.50;99.90;;;;;;5073802;28;20028;-84
2022/05/23 12:26:11;;;;;;;14.25;8.18;;;19.40;99.90;;;;;;5056799;28;20875;-83
2022/05/23 12:28:53;;;;;;;10.93;7.93;;;19.20;99.90;;;;;;5057007;28;20032;-83
2022/05/23 12:31:25;;;;;;;12.82;8.27;;;19.10;99.90;;;;;;5073541;28;20028;-84
2022/05/23 12:34:07;;;;;;;14.40;8.52;;;18.80;99.90;;;;;;5057114;28;20025;-83
2022/05/23 12:36:57;;;;;;;11.52;8.45;;;18.60;99.90;;;;;;5057119;28;20048;-83
2022/05/23 12:39:44;;;;;;;11.48;8.25;;;18.60;99.90;;;;;;5054780;28;20028;-83
2022/05/23 12:42:55;;;;;;;14.00;9.15;;;18.50;99.90;;;;;;5073398;28;20043;-83
2022/05/23 12:45:42;;;;;;;13.82;8.68;;;18.60;99.90;;;;;;5056878;28;20480;-83
2022/05/23 12:48:23;;;;;;;16.13;8.20;;;18.90;99.90;;;;;;5057521;28;20115;-83
2022/05/23 12:51:14;;;;;;;11.73;7.90;;;19.10;99.90;;;;;;5056847;28;20434;-83
2022/05/23 12:54:01;;;;;;;11.95;7.95;;;19.10;99.90;;;;;;5056891;28;20037;-83
2022/05/23 12:56:53;;;;;;;13.10;8.00;;;19.20;99.90;;;;;;5051829;28;20021;-84
2022/05/23 12:59:47;;;;;;;13.95;7.13;;;19.30;99.90;;;;;;5073485;28;20028;-83
2022/05/23 13:02:21;;;;;;;12.40;6.97;;;19.40;99.90;;;;;;5056266;28;20040;-83
2022/05/23 13:04:58;;;;;;;13.65;7.78;;;19.70;99.90;;;;;;5056052;28;20028;-83
2022/05/23 13:07:44;;;;;;;13.32;7.25;;;19.70;99.90;;;;;;5056165;28;20112;-83
2022/05/23 13:10:17;;;;;;;14.23;7.63;;;20.00;99.90;;;;;;5056062;28;20028;-83
2022/05/23 13:13:05;;;;;;;12.48;6.75;;;20.10;99.90;;;;;;5072554;28;20055;-83
2022/05/23 13:15:33;;;;;;;11.60;7.25;;;20.20;99.90;;;;;;5032075;28;20139;-83
2022/05/23 13:23:30;;;;;;;13.43;5.40;;;20.30;99.90;;;;;;5072456;28;20044;-83
2022/05/23 13:25:57;;;;;;;9.38;4.72;;;20.60;99.90;;;;;;5055833;28;20032;-82
2022/05/23 13:28:24;;;;;;;11.50;4.70;;;20.70;99.90;;;;;;5056205;28;20029;-83
2022/05/23 13:30:53;;;;;;;10.30;5.28;;;20.80;99.90;;;;;;5055807;28;20033;-83
2022/05/23 13:33:32;;;;;;;15.38;5.57;;;20.60;99.90;;;;;;5071736;28;20763;-83
2022/05/23 13:36:01;;;;;;;9.18;4.70;;;20.50;99.90;;;;;;5055302;28;20090;-82
2022/05/23 13:38:32;;;;;;;9.85;4.20;;;20.60;99.90;;;;;;5055036;28;20071;-82
2022/05/23 13:41:01;;;;;;;8.82;4.82;;;21.00;99.90;;;;;;5056566;28;20695;-83
2022/05/23 13:43:42;;;;;;;10.70;4.43;;;21.40;99.90;;;;;;5055510;28;20033;-83
2022/05/23 13:46:11;;;;;;;7.25;4.18;;;21.60;99.90;;;;;;5072390;28;20024;-84
2022/05/23 13:48:44;;;;;;;9.15;4.07;;;21.70;99.90;;;;;;5072050;28;20451;-83
2022/05/23 13:51:42;;;;;;;10.73;4.72;;;21.80;99.90;;;;;;5055803;28;20115;-84
2022/05/23 13:54:15;;;;;;;6.15;4.28;;;21.70;99.90;;;;;;5048097;28;20079;-83
2022/05/23 13:56:44;;;;;;;8.93;4.10;;;22.30;99.90;;;;;;5054945;28;20051;-84
2022/05/23 13:59:15;;;;;;;10.23;4.13;;;22.90;99.90;;;;;;5070822;28;20649;-84
2022/05/23 14:01:47;;;;;;;17.27;3.58;;;23.30;99.90;;;;;;5069088;28;20021;-83
2022/05/23 14:04:16;;;;;;;9.97;3.80;;;23.30;99.90;;;;;;5071549;28;20085;-84
2022/05/23 14:07:03;;;;;;;8.45;3.17;;;23.60;99.90;;;;;;5055496;28;20051;-84
2022/05/23 14:09:31;;;;;;;9.63;4.22;;;23.80;99.90;;;;;;5072272;28;20048;-81
2022/05/23 14:12:04;;;;;;;11.90;3.55;;;23.90;99.90;;;;;;5072117;28;20043;-82
2022/05/23 14:14:36;;;;;;;7.95;3.40;;;24.20;99.90;;;;;;5071754;28;20032;-84
2022/05/23 14:17:41;;;;;;;9.65;4.13;;;24.80;99.90;;;;;;5055784;28;20036;-81
2022/05/23 14:20:21;;;;;;;7.25;3.13;;;25.20;99.90;;;;;;5055534;28;20032;-84
2022/05/23 14:23:08;;;;;;;7.55;2.70;;;25.50;99.90;;;;;;5055122;28;20536;-81
2022/05/23 14:25:41;;;;;;;10.05;2.40;;;25.60;99.90;;;;;;5054667;28;20043;-82
2022/05/23 14:28:14;;;;;;;6.55;2.88;;;26.30;99.90;;;;;;5052809;28;20024;-82
2022/05/23 14:31:30;;;;;;;8.07;2.88;;;26.60;99.90;;;;;;5055503;28;20035;-82
2022/05/23 14:34:03;;;;;;;8.98;3.33;;;26.20;99.90;;;;;;5071555;28;20120;-81
2022/05/23 14:36:30;;;;;;;8.07;2.97;;;26.00;99.90;;;;;;5050122;28;20472;-82